createdAt,value
2023-04-04T00:24:13.855Z,102485.00
2023-04-04T00:29:16.907Z,102479.00
2023-04-04T00:34:19.818Z,102475.00
2023-04-04T00:39:23.933Z,102474.00
2023-04-04T00:44:26.538Z,102465.00
2023-04-04T00:49:28.874Z,102467.00
2023-04-04T00:54:32.873Z,102461.00
2023-04-04T00:59:38.857Z,102459.00
2023-04-04T01:04:41.607Z,102460.00
2023-04-04T01:09:45.885Z,102444.00
2023-04-04T01:14:51.073Z,102458.00
2023-04-04T01:20:05.102Z,102444.00
2023-04-04T01:25:18.756Z,102437.00
2023-04-04T01:30:36.164Z,102430.00
2023-04-04T01:35:48.995Z,102429.00
2023-04-04T01:40:57.663Z,102427.00
2023-04-04T01:46:03.392Z,102424.00
2023-04-04T01:51:06.453Z,102414.00
2023-04-04T01:56:09.610Z,102412.00
2023-04-04T02:01:17.244Z,102412.00
2023-04-04T02:06:19.766Z,102393.00
2023-04-04T02:11:22.353Z,102389.00
2023-04-04T02:16:26.251Z,102390.00
2023-04-04T02:21:31.791Z,102387.00
2023-04-04T02:26:34.381Z,102382.00
2023-04-04T02:31:38.718Z,102376.00
2023-04-04T02:36:43.937Z,102384.00
2023-04-04T02:41:46.916Z,102382.00
2023-04-04T02:46:54.193Z,102378.00
2023-04-04T02:52:03.504Z,102371.00
2023-04-04T02:57:11.188Z,102373.00
2023-04-04T03:02:15.472Z,102369.00
2023-04-04T03:07:18.113Z,102367.00
2023-04-04T03:12:21.088Z,102349.00
2023-04-04T03:17:26.815Z,102360.00
2023-04-04T03:22:29.297Z,102355.00
2023-04-04T03:27:32.167Z,102355.00
2023-04-04T03:32:36.538Z,102351.00
2023-04-04T03:37:39.444Z,102358.00
2023-04-04T03:42:42.647Z,102355.00
2023-04-04T03:47:48.494Z,102345.00
2023-04-04T03:52:51.414Z,102346.00
2023-04-04T03:57:54.722Z,102339.00
2023-04-04T04:02:58.931Z,102332.00
2023-04-04T04:08:03.208Z,102344.00
2023-04-04T04:13:05.866Z,102348.00
2023-04-04T04:18:10.724Z,102332.00
2023-04-04T04:23:13.332Z,102347.00
2023-04-04T04:28:16.410Z,102344.00
2023-04-04T04:33:20.338Z,102332.00
2023-04-04T04:38:34.013Z,102339.00
2023-04-04T04:43:38.392Z,102342.00
2023-04-04T04:48:42.470Z,102347.00
2023-04-04T04:53:46.093Z,102342.00
2023-04-04T04:58:49.207Z,102338.00
2023-04-04T05:03:59.925Z,102337.00
2023-04-04T05:09:12.416Z,102341.00
2023-04-04T05:14:15.262Z,102346.00
2023-04-04T05:19:28.952Z,102340.00
2023-04-04T05:24:34.030Z,102331.00
2023-04-04T05:29:37.942Z,102341.00
2023-04-04T05:34:42.195Z,102341.00
2023-04-04T05:39:49.353Z,102338.00
2023-04-04T05:44:56.645Z,102336.00
2023-04-04T05:50:05.439Z,102345.00
2023-04-04T05:55:12.795Z,102347.00
2023-04-04T06:00:20.361Z,102342.00
2023-04-04T06:05:37.065Z,102347.00
2023-04-04T06:10:44.352Z,102335.00
2023-04-04T06:15:47.975Z,102348.00
2023-04-04T06:20:52.635Z,102341.00
2023-04-04T06:25:55.748Z,102335.00
2023-04-04T06:31:00.467Z,102332.00
2023-04-04T06:36:08.969Z,102323.00
2023-04-04T06:41:11.862Z,102312.00
2023-04-04T06:46:16.419Z,102314.00
2023-04-04T06:51:21.768Z,102329.00
2023-04-04T06:56:25.731Z,102327.00
2023-04-04T07:01:29.218Z,102323.00
2023-04-04T07:06:59.965Z,102323.00
2023-04-04T07:12:04.036Z,102315.00
2023-04-04T07:17:17.191Z,102312.00
2023-04-04T07:22:31.067Z,102311.00
2023-04-04T07:27:34.845Z,102314.00
2023-04-04T07:32:39.344Z,102317.00
2023-04-04T07:37:45.392Z,102314.00
2023-04-04T07:43:01.085Z,102325.00
2023-04-04T07:48:04.682Z,102312.00
2023-04-04T07:53:09.113Z,102305.00
2023-04-04T07:58:12.370Z,102298.00
2023-04-04T08:03:15.993Z,102304.00
2023-04-04T08:08:20.496Z,102310.00
2023-04-04T08:13:23.256Z,102302.00
2023-04-04T08:18:27.878Z,102309.00
2023-04-04T08:23:32.050Z,102305.00
2023-04-04T08:28:35.259Z,102306.00
2023-04-04T08:33:47.478Z,102299.00
2023-04-04T08:38:52.688Z,102294.00
2023-04-04T08:44:01.156Z,102288.00
2023-04-04T08:49:04.626Z,102295.00
2023-04-04T08:54:15.221Z,102297.00
2023-04-04T08:59:28.112Z,102290.00
2023-04-04T09:04:37.491Z,102282.00
2023-04-04T09:09:47.429Z,102272.00
2023-04-04T09:14:59.561Z,102265.00
2023-04-04T09:20:03.403Z,102263.00
2023-04-04T09:25:20.927Z,102274.00
2023-04-04T09:30:27.515Z,102278.00
2023-04-04T09:35:47.081Z,102278.00
2023-04-04T09:40:53.597Z,102278.00
2023-04-04T09:46:01.972Z,102275.00
2023-04-04T09:51:07.444Z,102296.00
2023-04-04T09:56:12.343Z,102271.00
2023-04-04T10:01:15.915Z,102274.00
2023-04-04T10:06:26.969Z,102276.00
2023-04-04T10:11:34.415Z,102283.00
2023-04-04T10:16:37.472Z,102264.00
2023-04-04T10:21:42.003Z,102258.00
2023-04-04T10:26:46.701Z,102261.00
2023-04-04T10:31:59.354Z,102253.00
2023-04-04T10:37:13.100Z,102249.00
2023-04-04T10:42:22.180Z,102248.00
2023-04-04T10:47:27.035Z,102244.00
2023-04-04T10:52:31.837Z,102249.00
2023-04-04T10:57:42.222Z,102237.00
2023-04-04T11:02:47.826Z,102217.00
2023-04-04T11:13:15.208Z,102193.00
2023-04-04T11:18:32.107Z,102214.00
2023-04-04T11:24:14.500Z,102219.00
2023-04-04T11:29:51.316Z,102205.00
2023-04-04T11:34:56.984Z,102196.00
2023-04-04T11:40:14.449Z,102196.00
2023-04-04T11:45:21.306Z,102185.00
2023-04-04T11:50:24.944Z,102186.00
2023-04-04T11:55:28.336Z,102174.00
2023-04-04T12:00:36.966Z,102176.00
2023-04-04T12:05:45.051Z,102175.00
2023-04-04T12:10:54.328Z,102174.00
2023-04-04T12:15:59.851Z,102158.00
2023-04-04T12:21:07.755Z,102152.00
2023-04-04T12:26:10.674Z,102156.00
2023-04-04T12:31:16.254Z,102159.00
2023-04-04T12:36:20.266Z,102145.00
2023-04-04T12:41:23.942Z,102145.00
2023-04-04T12:46:34.934Z,102135.00
2023-04-04T12:51:38.714Z,102133.00
2023-04-04T12:56:41.722Z,102122.00
2023-04-04T13:01:47.026Z,102110.00
2023-04-04T13:06:50.679Z,102104.00
2023-04-04T13:11:59.386Z,102105.00
2023-04-04T13:17:06.198Z,102104.00
2023-04-04T13:22:09.713Z,102093.00
2023-04-04T13:27:12.571Z,102088.00
2023-04-04T13:32:16.443Z,102075.00
2023-04-04T13:37:19.045Z,102084.00
2023-04-04T13:42:21.602Z,102081.00
2023-04-04T13:47:28.928Z,102076.00
2023-04-04T13:52:35.660Z,102079.00
2023-04-04T13:57:38.474Z,102072.00
2023-04-04T14:02:42.545Z,102048.00
2023-04-04T14:07:45.536Z,102051.00
2023-04-04T14:12:48.174Z,102059.00
2023-04-04T14:17:52.312Z,102059.00
2023-04-04T14:22:54.992Z,102056.00
2023-04-04T14:27:57.630Z,102067.00
2023-04-04T14:33:01.767Z,102061.00
2023-04-04T14:38:07.473Z,102067.00
2023-04-04T14:43:10.327Z,102062.00
2023-04-04T14:48:14.647Z,102059.00
2023-04-04T14:53:20.186Z,102054.00
2023-04-04T14:58:22.912Z,102059.00
2023-04-04T15:03:28.274Z,102052.00
2023-04-04T15:08:31.182Z,102061.00
2023-04-04T15:13:37.199Z,102066.00
2023-04-04T15:18:41.223Z,102061.00
2023-04-04T15:23:43.781Z,102062.00
2023-04-04T15:28:46.492Z,102060.00
2023-04-04T15:33:50.509Z,102070.00
2023-04-04T15:38:56.074Z,102072.00
2023-04-04T15:43:58.561Z,102059.00
2023-04-04T15:49:03.192Z,102062.00
2023-04-04T15:54:05.849Z,102062.00
2023-04-04T15:59:08.451Z,102067.00
2023-04-04T16:04:15.118Z,102066.00
2023-04-04T16:09:17.600Z,102073.00
2023-04-04T16:14:20.267Z,102078.00
2023-04-04T16:19:24.216Z,102078.00
2023-04-04T16:24:27.499Z,102094.00
2023-04-04T16:29:30.120Z,102082.00
2023-04-04T16:34:34.522Z,102088.00
2023-04-04T16:39:38.334Z,102088.00
2023-04-04T16:44:40.960Z,102089.00
2023-04-04T16:49:45.167Z,102101.00
2023-04-04T16:54:47.668Z,102102.00
2023-04-04T16:59:50.168Z,102088.00
2023-04-04T17:04:54.057Z,102087.00
2023-04-04T17:09:56.619Z,102093.00
2023-04-04T17:15:02.212Z,102086.00
2023-04-04T17:20:07.889Z,102096.00
2023-04-04T17:25:10.774Z,102107.00
2023-04-04T17:30:14.946Z,102102.00
2023-04-04T17:35:19.028Z,102111.00
2023-04-04T17:40:24.528Z,102113.00
2023-04-04T17:45:27.515Z,102113.00
2023-04-04T17:50:31.840Z,102117.00
2023-04-04T17:55:34.764Z,102119.00
2023-04-04T18:00:37.347Z,102119.00
2023-04-04T18:05:41.888Z,102117.00
2023-04-04T18:10:46.402Z,102121.00
2023-04-04T18:15:49.010Z,102130.00
2023-04-04T18:20:53.663Z,102142.00
2023-04-04T18:25:56.360Z,102128.00
2023-04-04T18:30:59.677Z,102139.00
2023-04-04T18:36:04.408Z,102119.00
2023-04-04T18:41:08.218Z,102126.00
2023-04-04T18:46:11.043Z,102122.00
2023-04-04T18:51:15.167Z,102119.00
2023-04-04T18:56:17.699Z,102132.00
2023-04-04T19:01:20.784Z,102122.00
2023-04-04T19:06:27.136Z,102113.00
2023-04-04T19:11:34.950Z,102112.00
2023-04-04T19:16:37.635Z,102125.00
2023-04-04T19:21:41.951Z,102117.00
2023-04-04T19:26:44.549Z,102117.00
2023-04-04T19:31:47.559Z,102115.00
2023-04-04T19:36:51.784Z,102107.00
2023-04-04T19:41:54.477Z,102120.00
2023-04-04T19:46:57.571Z,102131.00
2023-04-04T19:52:03.260Z,102116.00
2023-04-04T19:57:08.455Z,102127.00
2023-04-04T20:02:50.348Z,102120.00
2023-04-04T20:07:55.066Z,102116.00
2023-04-04T20:12:57.610Z,102125.00
2023-04-04T20:18:00.177Z,102108.00
2023-04-04T20:23:09.803Z,102107.00
2023-04-04T20:28:24.371Z,102115.00
2023-04-04T20:33:35.991Z,102122.00
2023-04-04T20:38:41.998Z,102114.00
2023-04-04T20:43:52.465Z,102100.00
2023-04-04T20:48:55.638Z,102104.00
2023-04-04T20:54:02.744Z,102107.00
2023-04-04T20:59:07.806Z,102113.00
2023-04-04T21:04:25.942Z,102095.00
2023-04-04T21:09:29.981Z,102104.00
2023-04-04T21:14:35.723Z,102092.00
2023-04-04T21:19:38.241Z,102098.00
2023-04-04T21:24:42.914Z,102103.00
2023-04-04T21:29:45.524Z,102099.00
2023-04-04T21:34:47.966Z,102095.00
2023-04-04T21:39:56.444Z,102092.00
2023-04-04T21:44:58.957Z,102091.00
2023-04-04T21:50:01.457Z,102096.00
2023-04-04T21:55:06.132Z,102081.00
2023-04-04T22:00:09.874Z,102096.00
2023-04-04T22:05:12.382Z,102094.00
2023-04-04T22:10:19.631Z,102094.00
2023-04-04T22:15:22.114Z,102089.00
2023-04-04T22:20:24.621Z,102094.00
2023-04-04T22:25:28.654Z,102088.00
2023-04-04T22:30:31.330Z,102086.00
2023-04-04T22:35:34.019Z,102080.00
2023-04-04T22:40:37.958Z,102084.00
2023-04-04T22:45:40.500Z,102070.00
2023-04-04T22:50:43.646Z,102078.00
2023-04-04T22:55:47.441Z,102073.00
2023-04-04T23:00:50.179Z,102077.00
2023-04-04T23:05:52.586Z,102064.00
2023-04-04T23:10:56.427Z,102066.00
2023-04-04T23:15:59.074Z,102067.00
2023-04-04T23:21:01.868Z,102070.00
2023-04-04T23:26:05.811Z,102051.00
2023-04-04T23:31:08.215Z,102065.00
2023-04-04T23:36:10.888Z,102056.00
2023-04-04T23:41:14.706Z,102049.00
2023-04-04T23:46:17.433Z,102043.00
2023-04-04T23:51:20.096Z,102037.00
2023-04-04T23:56:24.126Z,102033.00
